sensor_id;sensor_type;location;lat;lon;timestamp;P1;durP1;ratioP1;P2;durP2;ratioP2
17850;SDS011;9051;51.548;14.348;2022-08-21T00:01:38;23.15;;;19.98;;
17850;SDS011;9051;51.548;14.348;2022-08-21T00:04:10;23.25;;;20.73;;
17850;SDS011;9051;51.548;14.348;2022-08-21T00:06:43;24.65;;;21.95;;
17850;SDS011;9051;51.548;14.348;2022-08-21T00:09:18;24.05;;;20.38;;
17850;SDS011;9051;51.548;14.348;2022-08-21T00:11:51;23.00;;;20.60;;
17850;SDS011;9051;51.548;14.348;2022-08-21T00:14:24;22.57;;;20.17;;
17850;SDS011;9051;51.548;14.348;2022-08-21T00:16:56;22.40;;;19.97;;
17850;SDS011;9051;51.548;14.348;2022-08-21T00:19:28;22.25;;;19.83;;
17850;SDS011;9051;51.548;14.348;2022-08-21T00:22:00;23.45;;;20.17;;
17850;SDS011;9051;51.548;14.348;2022-08-21T00:24:33;23.67;;;21.20;;
17850;SDS011;9051;51.548;14.348;2022-08-21T00:27:06;21.83;;;19.55;;
17850;SDS011;9051;51.548;14.348;2022-08-21T00:29:38;22.52;;;20.23;;
17850;SDS011;9051;51.548;14.348;2022-08-21T00:32:10;22.17;;;19.88;;
17850;SDS011;9051;51.548;14.348;2022-08-21T00:34:42;23.08;;;20.58;;
17850;SDS011;9051;51.548;14.348;2022-08-21T00:37:14;23.33;;;20.92;;
17850;SDS011;9051;51.548;14.348;2022-08-21T00:39:47;23.27;;;20.60;;
17850;SDS011;9051;51.548;14.348;2022-08-21T00:42:20;23.50;;;20.33;;
17850;SDS011;9051;51.548;14.348;2022-08-21T00:44:52;24.10;;;21.50;;
17850;SDS011;9051;51.548;14.348;2022-08-21T00:47:24;22.83;;;19.97;;
17850;SDS011;9051;51.548;14.348;2022-08-21T00:49:56;23.20;;;20.73;;
17850;SDS011;9051;51.548;14.348;2022-08-21T00:52:28;24.00;;;20.33;;
17850;SDS011;9051;51.548;14.348;2022-08-21T00:55:06;23.43;;;20.57;;
17850;SDS011;9051;51.548;14.348;2022-08-21T00:57:42;23.50;;;19.90;;
17850;SDS011;9051;51.548;14.348;2022-08-21T01:00:17;22.48;;;20.02;;
17850;SDS011;9051;51.548;14.348;2022-08-21T01:02:51;22.85;;;20.20;;
17850;SDS011;9051;51.548;14.348;2022-08-21T01:05:23;21.83;;;19.63;;
17850;SDS011;9051;51.548;14.348;2022-08-21T01:07:56;22.75;;;19.80;;
17850;SDS011;9051;51.548;14.348;2022-08-21T01:10:30;22.45;;;20.05;;
17850;SDS011;9051;51.548;14.348;2022-08-21T01:13:04;23.95;;;20.42;;
17850;SDS011;9051;51.548;14.348;2022-08-21T01:15:40;23.40;;;20.90;;
17850;SDS011;9051;51.548;14.348;2022-08-21T01:18:17;22.00;;;19.75;;
17850;SDS011;9051;51.548;14.348;2022-08-21T01:21:02;21.90;;;19.48;;
17850;SDS011;9051;51.548;14.348;2022-08-21T01:23:40;19.25;;;17.23;;
17850;SDS011;9051;51.548;14.348;2022-08-21T01:26:17;20.48;;;18.25;;
17850;SDS011;9051;51.548;14.348;2022-08-21T01:28:52;22.00;;;19.65;;
17850;SDS011;9051;51.548;14.348;2022-08-21T01:31:28;21.45;;;19.20;;
17850;SDS011;9051;51.548;14.348;2022-08-21T01:34:01;20.83;;;18.77;;
17850;SDS011;9051;51.548;14.348;2022-08-21T01:36:35;23.33;;;20.73;;
17850;SDS011;9051;51.548;14.348;2022-08-21T01:39:08;19.80;;;17.58;;
17850;SDS011;9051;51.548;14.348;2022-08-21T01:41:40;20.83;;;17.80;;
17850;SDS011;9051;51.548;14.348;2022-08-21T01:44:12;20.92;;;18.63;;
17850;SDS011;9051;51.548;14.348;2022-08-21T01:46:44;23.80;;;21.02;;
17850;SDS011;9051;51.548;14.348;2022-08-21T01:49:16;21.58;;;19.20;;
17850;SDS011;9051;51.548;14.348;2022-08-21T01:51:50;21.63;;;19.05;;
17850;SDS011;9051;51.548;14.348;2022-08-21T01:54:22;21.73;;;19.00;;
17850;SDS011;9051;51.548;14.348;2022-08-21T01:56:54;21.05;;;18.92;;
17850;SDS011;9051;51.548;14.348;2022-08-21T01:59:28;21.58;;;19.35;;
17850;SDS011;9051;51.548;14.348;2022-08-21T02:02:00;22.77;;;20.33;;
17850;SDS011;9051;51.548;14.348;2022-08-21T02:04:32;21.20;;;19.00;;
17850;SDS011;9051;51.548;14.348;2022-08-21T02:07:05;20.45;;;18.33;;
17850;SDS011;9051;51.548;14.348;2022-08-21T02:09:37;22.27;;;19.80;;
17850;SDS011;9051;51.548;14.348;2022-08-21T02:12:11;23.77;;;21.02;;
17850;SDS011;9051;51.548;14.348;2022-08-21T02:14:43;22.85;;;20.38;;
17850;SDS011;9051;51.548;14.348;2022-08-21T02:17:15;23.07;;;20.07;;
17850;SDS011;9051;51.548;14.348;2022-08-21T02:19:47;22.75;;;19.75;;
17850;SDS011;9051;51.548;14.348;2022-08-21T02:22:21;23.17;;;20.70;;
17850;SDS011;9051;51.548;14.348;2022-08-21T02:24:53;24.00;;;20.38;;
17850;SDS011;9051;51.548;14.348;2022-08-21T02:27:25;23.30;;;20.25;;
17850;SDS011;9051;51.548;14.348;2022-08-21T02:29:57;22.20;;;19.88;;
17850;SDS011;9051;51.548;14.348;2022-08-21T02:32:29;21.80;;;19.43;;
17850;SDS011;9051;51.548;14.348;2022-08-21T02:35:01;21.93;;;19.63;;
17850;SDS011;9051;51.548;14.348;2022-08-21T02:37:34;23.30;;;20.57;;
17850;SDS011;9051;51.548;14.348;2022-08-21T02:40:14;23.10;;;20.60;;
17850;SDS011;9051;51.548;14.348;2022-08-21T02:42:47;24.17;;;20.67;;
17850;SDS011;9051;51.548;14.348;2022-08-21T02:45:20;22.50;;;19.07;;
17850;SDS011;9051;51.548;14.348;2022-08-21T02:47:53;21.67;;;18.90;;
17850;SDS011;9051;51.548;14.348;2022-08-21T02:50:28;23.00;;;19.30;;
17850;SDS011;9051;51.548;14.348;2022-08-21T02:53:04;21.47;;;19.03;;
17850;SDS011;9051;51.548;14.348;2022-08-21T02:55:38;23.33;;;20.07;;
17850;SDS011;9051;51.548;14.348;2022-08-21T02:58:10;22.50;;;17.93;;
17850;SDS011;9051;51.548;14.348;2022-08-21T03:00:45;22.10;;;19.07;;
17850;SDS011;9051;51.548;14.348;2022-08-21T03:03:18;24.53;;;20.30;;
17850;SDS011;9051;51.548;14.348;2022-08-21T03:05:51;23.10;;;20.30;;
17850;SDS011;9051;51.548;14.348;2022-08-21T03:08:24;22.20;;;19.83;;
17850;SDS011;9051;51.548;14.348;2022-08-21T03:10:56;22.53;;;19.60;;
17850;SDS011;9051;51.548;14.348;2022-08-21T03:13:31;22.10;;;18.93;;
17850;SDS011;9051;51.548;14.348;2022-08-21T03:16:03;22.53;;;20.13;;
17850;SDS011;9051;51.548;14.348;2022-08-21T03:18:37;21.27;;;19.00;;
17850;SDS011;9051;51.548;14.348;2022-08-21T03:21:10;20.73;;;17.93;;
17850;SDS011;9051;51.548;14.348;2022-08-21T03:23:44;21.20;;;18.97;;
17850;SDS011;9051;51.548;14.348;2022-08-21T03:26:18;21.90;;;19.20;;
17850;SDS011;9051;51.548;14.348;2022-08-21T03:32:15;20.20;;;17.87;;
17850;SDS011;9051;51.548;14.348;2022-08-21T03:34:47;20.37;;;18.00;;
17850;SDS011;9051;51.548;14.348;2022-08-21T03:37:19;20.40;;;17.07;;
17850;SDS011;9051;51.548;14.348;2022-08-21T03:39:53;17.43;;;15.30;;
17850;SDS011;9051;51.548;14.348;2022-08-21T03:42:25;19.83;;;14.97;;
17850;SDS011;9051;51.548;14.348;2022-08-21T03:44:57;17.53;;;14.97;;
17850;SDS011;9051;51.548;14.348;2022-08-21T03:47:30;15.57;;;13.97;;
17850;SDS011;9051;51.548;14.348;2022-08-21T03:50:02;14.20;;;12.70;;
17850;SDS011;9051;51.548;14.348;2022-08-21T03:52:37;14.60;;;12.97;;
17850;SDS011;9051;51.548;14.348;2022-08-21T03:55:11;17.13;;;12.60;;
17850;SDS011;9051;51.548;14.348;2022-08-21T03:57:43;16.20;;;12.60;;
17850;SDS011;9051;51.548;14.348;2022-08-21T04:00:16;13.23;;;11.83;;
17850;SDS011;9051;51.548;14.348;2022-08-21T04:02:50;13.50;;;12.00;;
17850;SDS011;9051;51.548;14.348;2022-08-21T04:05:22;13.13;;;11.83;;
17850;SDS011;9051;51.548;14.348;2022-08-21T04:08:01;13.13;;;11.83;;
17850;SDS011;9051;51.548;14.348;2022-08-21T04:10:38;13.23;;;11.93;;
17850;SDS011;9051;51.548;14.348;2022-08-21T04:13:12;15.40;;;11.57;;
17850;SDS011;9051;51.548;14.348;2022-08-21T04:15:46;17.17;;;13.07;;
17850;SDS011;9051;51.548;14.348;2022-08-21T04:18:19;14.27;;;12.80;;
17850;SDS011;9051;51.548;14.348;2022-08-21T04:20:52;13.83;;;12.40;;
17850;SDS011;9051;51.548;14.348;2022-08-21T04:23:27;14.83;;;12.63;;
17850;SDS011;9051;51.548;14.348;2022-08-21T04:26:01;14.67;;;11.90;;
17850;SDS011;9051;51.548;14.348;2022-08-21T04:28:34;14.10;;;12.60;;
17850;SDS011;9051;51.548;14.348;2022-08-21T04:31:06;14.03;;;12.43;;
17850;SDS011;9051;51.548;14.348;2022-08-21T04:33:39;13.77;;;12.13;;
17850;SDS011;9051;51.548;14.348;2022-08-21T04:36:12;13.87;;;12.43;;
17850;SDS011;9051;51.548;14.348;2022-08-21T04:38:44;12.90;;;11.70;;
17850;SDS011;9051;51.548;14.348;2022-08-21T04:41:17;13.80;;;12.40;;
17850;SDS011;9051;51.548;14.348;2022-08-21T04:43:49;13.87;;;12.47;;
17850;SDS011;9051;51.548;14.348;2022-08-21T04:46:21;13.67;;;12.17;;
17850;SDS011;9051;51.548;14.348;2022-08-21T04:48:54;15.93;;;13.03;;
17850;SDS011;9051;51.548;14.348;2022-08-21T04:51:27;14.53;;;13.10;;
17850;SDS011;9051;51.548;14.348;2022-08-21T04:54:05;14.60;;;13.17;;
17850;SDS011;9051;51.548;14.348;2022-08-21T04:56:42;14.98;;;13.32;;
17850;SDS011;9051;51.548;14.348;2022-08-21T04:59:17;14.55;;;13.07;;
17850;SDS011;9051;51.548;14.348;2022-08-21T05:01:52;14.87;;;12.97;;
17850;SDS011;9051;51.548;14.348;2022-08-21T05:04:27;14.48;;;12.98;;
17850;SDS011;9051;51.548;14.348;2022-08-21T05:07:04;14.33;;;12.90;;
17850;SDS011;9051;51.548;14.348;2022-08-21T05:09:39;13.83;;;12.43;;
17850;SDS011;9051;51.548;14.348;2022-08-21T05:12:12;13.20;;;11.90;;
17850;SDS011;9051;51.548;14.348;2022-08-21T05:14:45;14.13;;;12.73;;
17850;SDS011;9051;51.548;14.348;2022-08-21T05:17:18;14.88;;;12.77;;
17850;SDS011;9051;51.548;14.348;2022-08-21T05:19:51;14.00;;;12.57;;
17850;SDS011;9051;51.548;14.348;2022-08-21T05:22:23;13.70;;;12.30;;
17850;SDS011;9051;51.548;14.348;2022-08-21T05:24:56;12.43;;;11.23;;
17850;SDS011;9051;51.548;14.348;2022-08-21T05:27:30;14.25;;;12.85;;
17850;SDS011;9051;51.548;14.348;2022-08-21T05:30:02;15.18;;;12.75;;
17850;SDS011;9051;51.548;14.348;2022-08-21T05:32:36;13.57;;;12.15;;
17850;SDS011;9051;51.548;14.348;2022-08-21T05:35:08;12.90;;;11.60;;
17850;SDS011;9051;51.548;14.348;2022-08-21T05:37:41;13.15;;;11.75;;
17850;SDS011;9051;51.548;14.348;2022-08-21T05:40:13;13.98;;;12.57;;
17850;SDS011;9051;51.548;14.348;2022-08-21T05:42:46;15.85;;;12.35;;
17850;SDS011;9051;51.548;14.348;2022-08-21T05:45:19;13.40;;;12.00;;
17850;SDS011;9051;51.548;14.348;2022-08-21T05:47:52;12.50;;;11.20;;
17850;SDS011;9051;51.548;14.348;2022-08-21T05:50:24;13.48;;;12.07;;
17850;SDS011;9051;51.548;14.348;2022-08-21T05:52:56;13.82;;;12.43;;
17850;SDS011;9051;51.548;14.348;2022-08-21T05:55:28;14.77;;;13.17;;
17850;SDS011;9051;51.548;14.348;2022-08-21T05:58:02;14.40;;;12.90;;
17850;SDS011;9051;51.548;14.348;2022-08-21T06:00:34;16.65;;;13.75;;
17850;SDS011;9051;51.548;14.348;2022-08-21T06:03:10;16.37;;;14.37;;
17850;SDS011;9051;51.548;14.348;2022-08-21T06:05:42;15.45;;;13.88;;
17850;SDS011;9051;51.548;14.348;2022-08-21T06:08:15;14.87;;;13.27;;
17850;SDS011;9051;51.548;14.348;2022-08-21T06:10:49;14.87;;;13.37;;
17850;SDS011;9051;51.548;14.348;2022-08-21T06:13:24;15.98;;;12.85;;
17850;SDS011;9051;51.548;14.348;2022-08-21T06:16:06;15.02;;;13.30;;
17850;SDS011;9051;51.548;14.348;2022-08-21T06:18:39;14.93;;;13.40;;
17850;SDS011;9051;51.548;14.348;2022-08-21T06:21:12;14.87;;;13.37;;
17850;SDS011;9051;51.548;14.348;2022-08-21T06:23:45;14.87;;;13.27;;
17850;SDS011;9051;51.548;14.348;2022-08-21T06:26:17;14.93;;;13.00;;
17850;SDS011;9051;51.548;14.348;2022-08-21T06:28:51;15.63;;;14.13;;
17850;SDS011;9051;51.548;14.348;2022-08-21T06:31:25;15.20;;;13.47;;
17850;SDS011;9051;51.548;14.348;2022-08-21T06:33:59;15.57;;;13.87;;
17850;SDS011;9051;51.548;14.348;2022-08-21T06:36:31;15.70;;;14.10;;
17850;SDS011;9051;51.548;14.348;2022-08-21T06:39:03;15.17;;;13.67;;
17850;SDS011;9051;51.548;14.348;2022-08-21T06:41:35;15.07;;;13.50;;
17850;SDS011;9051;51.548;14.348;2022-08-21T06:44:10;15.57;;;13.97;;
17850;SDS011;9051;51.548;14.348;2022-08-21T06:46:42;16.13;;;14.03;;
17850;SDS011;9051;51.548;14.348;2022-08-21T06:49:14;14.93;;;13.43;;
17850;SDS011;9051;51.548;14.348;2022-08-21T06:51:46;16.03;;;13.70;;
17850;SDS011;9051;51.548;14.348;2022-08-21T06:54:18;16.57;;;13.90;;
17850;SDS011;9051;51.548;14.348;2022-08-21T06:56:53;14.70;;;13.10;;
17850;SDS011;9051;51.548;14.348;2022-08-21T06:59:26;12.77;;;11.47;;
17850;SDS011;9051;51.548;14.348;2022-08-21T07:01:58;15.70;;;13.13;;
17850;SDS011;9051;51.548;14.348;2022-08-21T07:04:31;15.63;;;13.40;;
17850;SDS011;9051;51.548;14.348;2022-08-21T07:07:03;13.37;;;12.00;;
17850;SDS011;9051;51.548;14.348;2022-08-21T07:09:35;13.60;;;12.07;;
17850;SDS011;9051;51.548;14.348;2022-08-21T07:12:07;14.13;;;12.63;;
17850;SDS011;9051;51.548;14.348;2022-08-21T07:14:41;14.40;;;12.73;;
17850;SDS011;9051;51.548;14.348;2022-08-21T07:17:13;15.03;;;12.30;;
17850;SDS011;9051;51.548;14.348;2022-08-21T07:19:45;12.27;;;11.10;;
17850;SDS011;9051;51.548;14.348;2022-08-21T07:22:17;13.03;;;11.60;;
17850;SDS011;9051;51.548;14.348;2022-08-21T07:24:51;13.27;;;10.77;;
17850;SDS011;9051;51.548;14.348;2022-08-21T07:27:23;11.47;;;9.57;;
17850;SDS011;9051;51.548;14.348;2022-08-21T07:29:56;13.40;;;9.17;;
17850;SDS011;9051;51.548;14.348;2022-08-21T07:32:28;9.93;;;8.87;;
17850;SDS011;9051;51.548;14.348;2022-08-21T07:35:00;10.80;;;8.83;;
17850;SDS011;9051;51.548;14.348;2022-08-21T07:37:32;11.90;;;9.30;;
17850;SDS011;9051;51.548;14.348;2022-08-21T07:40:04;9.93;;;8.67;;
17850;SDS011;9051;51.548;14.348;2022-08-21T07:42:39;10.63;;;9.13;;
17850;SDS011;9051;51.548;14.348;2022-08-21T07:45:13;8.93;;;8.03;;
17850;SDS011;9051;51.548;14.348;2022-08-21T07:47:46;10.17;;;7.80;;
17850;SDS011;9051;51.548;14.348;2022-08-21T07:50:18;10.80;;;7.60;;
17850;SDS011;9051;51.548;14.348;2022-08-21T07:52:51;10.27;;;7.43;;
17850;SDS011;9051;51.548;14.348;2022-08-21T07:55:23;11.17;;;8.00;;
17850;SDS011;9051;51.548;14.348;2022-08-21T07:57:55;8.83;;;7.50;;
17850;SDS011;9051;51.548;14.348;2022-08-21T08:00:28;9.93;;;7.47;;
17850;SDS011;9051;51.548;14.348;2022-08-21T08:03:01;11.07;;;7.10;;
17850;SDS011;9051;51.548;14.348;2022-08-21T08:05:33;11.07;;;7.30;;
17850;SDS011;9051;51.548;14.348;2022-08-21T08:08:07;7.50;;;5.70;;
17850;SDS011;9051;51.548;14.348;2022-08-21T08:10:39;9.27;;;5.30;;
17850;SDS011;9051;51.548;14.348;2022-08-21T08:13:11;7.10;;;5.67;;
17850;SDS011;9051;51.548;14.348;2022-08-21T08:15:44;7.77;;;6.00;;
17850;SDS011;9051;51.548;14.348;2022-08-21T08:18:16;8.13;;;5.67;;
17850;SDS011;9051;51.548;14.348;2022-08-21T08:20:49;8.47;;;5.33;;
17850;SDS011;9051;51.548;14.348;2022-08-21T08:23:20;6.13;;;5.23;;
17850;SDS011;9051;51.548;14.348;2022-08-21T08:25:53;7.20;;;5.10;;
17850;SDS011;9051;51.548;14.348;2022-08-21T08:28:26;10.10;;;5.00;;
17850;SDS011;9051;51.548;14.348;2022-08-21T08:31:00;6.50;;;5.17;;
17850;SDS011;9051;51.548;14.348;2022-08-21T08:33:33;7.10;;;4.97;;
17850;SDS011;9051;51.548;14.348;2022-08-21T08:36:08;6.17;;;4.90;;
17850;SDS011;9051;51.548;14.348;2022-08-21T08:38:44;7.53;;;5.07;;
17850;SDS011;9051;51.548;14.348;2022-08-21T08:41:17;6.20;;;4.73;;
17850;SDS011;9051;51.548;14.348;2022-08-21T08:43:53;6.50;;;4.63;;
17850;SDS011;9051;51.548;14.348;2022-08-21T08:46:31;5.53;;;4.30;;
17850;SDS011;9051;51.548;14.348;2022-08-21T08:49:08;7.73;;;4.30;;
17850;SDS011;9051;51.548;14.348;2022-08-21T08:51:45;6.70;;;3.60;;
17850;SDS011;9051;51.548;14.348;2022-08-21T08:54:25;5.70;;;3.87;;
17850;SDS011;9051;51.548;14.348;2022-08-21T08:57:02;6.17;;;3.80;;
17850;SDS011;9051;51.548;14.348;2022-08-21T08:59:39;6.13;;;3.60;;
17850;SDS011;9051;51.548;14.348;2022-08-21T09:02:15;5.80;;;3.97;;
17850;SDS011;9051;51.548;14.348;2022-08-21T09:04:48;5.83;;;4.20;;
17850;SDS011;9051;51.548;14.348;2022-08-21T09:07:24;9.37;;;4.07;;
17850;SDS011;9051;51.548;14.348;2022-08-21T09:10:10;7.50;;;4.13;;
17850;SDS011;9051;51.548;14.348;2022-08-21T09:12:47;7.87;;;3.90;;
17850;SDS011;9051;51.548;14.348;2022-08-21T09:15:26;8.30;;;3.77;;
17850;SDS011;9051;51.548;14.348;2022-08-21T09:18:19;5.33;;;3.40;;
17850;SDS011;9051;51.548;14.348;2022-08-21T09:21:03;6.93;;;3.63;;
17850;SDS011;9051;51.548;14.348;2022-08-21T09:23:47;6.57;;;3.43;;
17850;SDS011;9051;51.548;14.348;2022-08-21T09:26:26;5.67;;;3.10;;
17850;SDS011;9051;51.548;14.348;2022-08-21T09:29:04;7.50;;;3.40;;
17850;SDS011;9051;51.548;14.348;2022-08-21T09:31:38;6.80;;;3.20;;
17850;SDS011;9051;51.548;14.348;2022-08-21T09:34:11;4.23;;;3.13;;
17850;SDS011;9051;51.548;14.348;2022-08-21T09:36:45;6.23;;;3.10;;
17850;SDS011;9051;51.548;14.348;2022-08-21T09:39:24;8.03;;;3.53;;
17850;SDS011;9051;51.548;14.348;2022-08-21T09:41:58;4.90;;;3.00;;
17850;SDS011;9051;51.548;14.348;2022-08-21T09:44:35;5.33;;;3.10;;
17850;SDS011;9051;51.548;14.348;2022-08-21T09:47:10;4.20;;;3.10;;
17850;SDS011;9051;51.548;14.348;2022-08-21T09:49:44;3.87;;;3.10;;
17850;SDS011;9051;51.548;14.348;2022-08-21T09:52:17;6.17;;;3.03;;
17850;SDS011;9051;51.548;14.348;2022-08-21T09:54:53;4.10;;;3.03;;
17850;SDS011;9051;51.548;14.348;2022-08-21T09:57:27;6.37;;;2.80;;
17850;SDS011;9051;51.548;14.348;2022-08-21T10:00:10;3.30;;;2.90;;
17850;SDS011;9051;51.548;14.348;2022-08-21T10:02:50;6.43;;;3.23;;
17850;SDS011;9051;51.548;14.348;2022-08-21T10:05:24;5.43;;;3.23;;
17850;SDS011;9051;51.548;14.348;2022-08-21T10:07:58;4.83;;;2.73;;
17850;SDS011;9051;51.548;14.348;2022-08-21T10:10:32;4.65;;;2.95;;
17850;SDS011;9051;51.548;14.348;2022-08-21T10:13:09;5.40;;;2.78;;
17850;SDS011;9051;51.548;14.348;2022-08-21T10:15:47;3.90;;;2.80;;
17850;SDS011;9051;51.548;14.348;2022-08-21T10:18:25;4.13;;;2.65;;
17850;SDS011;9051;51.548;14.348;2022-08-21T10:21:05;4.60;;;2.75;;
17850;SDS011;9051;51.548;14.348;2022-08-21T10:23:48;3.55;;;2.30;;
17850;SDS011;9051;51.548;14.348;2022-08-21T10:26:31;5.20;;;2.85;;
17850;SDS011;9051;51.548;14.348;2022-08-21T10:29:16;6.68;;;2.92;;
17850;SDS011;9051;51.548;14.348;2022-08-21T10:32:04;4.60;;;2.75;;
17850;SDS011;9051;51.548;14.348;2022-08-21T10:34:49;3.70;;;2.58;;
17850;SDS011;9051;51.548;14.348;2022-08-21T10:37:33;3.63;;;2.15;;
17850;SDS011;9051;51.548;14.348;2022-08-21T10:40:19;3.42;;;2.53;;
17850;SDS011;9051;51.548;14.348;2022-08-21T10:43:00;5.03;;;2.35;;
17850;SDS011;9051;51.548;14.348;2022-08-21T10:45:40;3.33;;;2.17;;
17850;SDS011;9051;51.548;14.348;2022-08-21T10:48:22;5.07;;;2.70;;
17850;SDS011;9051;51.548;14.348;2022-08-21T10:51:00;4.03;;;2.42;;
17850;SDS011;9051;51.548;14.348;2022-08-21T10:53:45;4.88;;;2.72;;
17850;SDS011;9051;51.548;14.348;2022-08-21T10:56:26;5.90;;;2.60;;
17850;SDS011;9051;51.548;14.348;2022-08-21T10:59:08;5.13;;;2.70;;
17850;SDS011;9051;51.548;14.348;2022-08-21T11:01:57;4.85;;;2.83;;
17850;SDS011;9051;51.548;14.348;2022-08-21T11:04:36;3.47;;;2.38;;
17850;SDS011;9051;51.548;14.348;2022-08-21T11:07:18;4.35;;;2.55;;
17850;SDS011;9051;51.548;14.348;2022-08-21T11:09:55;3.75;;;3.08;;
17850;SDS011;9051;51.548;14.348;2022-08-21T11:12:33;7.10;;;2.75;;
17850;SDS011;9051;51.548;14.348;2022-08-21T11:15:23;4.38;;;2.80;;
17850;SDS011;9051;51.548;14.348;2022-08-21T11:18:02;4.22;;;2.60;;
17850;SDS011;9051;51.548;14.348;2022-08-21T11:20:46;4.25;;;2.78;;
17850;SDS011;9051;51.548;14.348;2022-08-21T11:23:28;4.32;;;3.00;;
17850;SDS011;9051;51.548;14.348;2022-08-21T11:26:08;6.20;;;3.03;;
17850;SDS011;9051;51.548;14.348;2022-08-21T11:28:47;3.65;;;2.67;;
17850;SDS011;9051;51.548;14.348;2022-08-21T11:31:30;3.25;;;2.17;;
17850;SDS011;9051;51.548;14.348;2022-08-21T11:34:19;4.88;;;2.80;;
17850;SDS011;9051;51.548;14.348;2022-08-21T11:37:02;4.38;;;2.55;;
17850;SDS011;9051;51.548;14.348;2022-08-21T11:39:40;5.78;;;2.38;;
17850;SDS011;9051;51.548;14.348;2022-08-21T11:42:24;4.70;;;2.33;;
17850;SDS011;9051;51.548;14.348;2022-08-21T11:45:10;2.88;;;2.45;;
17850;SDS011;9051;51.548;14.348;2022-08-21T11:47:53;4.63;;;2.28;;
17850;SDS011;9051;51.548;14.348;2022-08-21T11:50:32;5.68;;;2.40;;
17850;SDS011;9051;51.548;14.348;2022-08-21T11:53:08;3.08;;;2.50;;
17850;SDS011;9051;51.548;14.348;2022-08-21T11:55:44;4.95;;;2.60;;
17850;SDS011;9051;51.548;14.348;2022-08-21T11:58:26;5.40;;;2.45;;
17850;SDS011;9051;51.548;14.348;2022-08-21T12:01:05;6.40;;;2.70;;
17850;SDS011;9051;51.548;14.348;2022-08-21T12:03:40;3.30;;;2.30;;
17850;SDS011;9051;51.548;14.348;2022-08-21T12:06:27;4.57;;;2.40;;
17850;SDS011;9051;51.548;14.348;2022-08-21T12:09:03;3.67;;;2.45;;
17850;SDS011;9051;51.548;14.348;2022-08-21T12:11:45;4.68;;;2.47;;
17850;SDS011;9051;51.548;14.348;2022-08-21T12:14:19;4.03;;;2.63;;
17850;SDS011;9051;51.548;14.348;2022-08-21T12:16:51;5.03;;;2.92;;
17850;SDS011;9051;51.548;14.348;2022-08-21T12:19:34;3.75;;;2.47;;
17850;SDS011;9051;51.548;14.348;2022-08-21T12:22:08;4.18;;;2.40;;
17850;SDS011;9051;51.548;14.348;2022-08-21T12:24:42;3.47;;;2.42;;
17850;SDS011;9051;51.548;14.348;2022-08-21T12:27:20;3.78;;;2.40;;
17850;SDS011;9051;51.548;14.348;2022-08-21T12:29:59;4.75;;;2.75;;
17850;SDS011;9051;51.548;14.348;2022-08-21T12:32:42;4.38;;;2.40;;
17850;SDS011;9051;51.548;14.348;2022-08-21T12:35:17;3.33;;;2.17;;
17850;SDS011;9051;51.548;14.348;2022-08-21T12:37:52;4.50;;;2.60;;
17850;SDS011;9051;51.548;14.348;2022-08-21T12:40:31;3.13;;;2.47;;
17850;SDS011;9051;51.548;14.348;2022-08-21T12:43:11;3.58;;;2.40;;
17850;SDS011;9051;51.548;14.348;2022-08-21T12:45:49;3.33;;;2.33;;
17850;SDS011;9051;51.548;14.348;2022-08-21T12:48:23;3.80;;;2.50;;
17850;SDS011;9051;51.548;14.348;2022-08-21T12:51:05;2.95;;;2.40;;
17850;SDS011;9051;51.548;14.348;2022-08-21T12:53:43;3.97;;;2.42;;
17850;SDS011;9051;51.548;14.348;2022-08-21T12:56:19;4.50;;;2.60;;
17850;SDS011;9051;51.548;14.348;2022-08-21T12:58:53;3.20;;;2.50;;
17850;SDS011;9051;51.548;14.348;2022-08-21T13:01:32;3.63;;;2.67;;
17850;SDS011;9051;51.548;14.348;2022-08-21T13:04:07;4.07;;;2.35;;
17850;SDS011;9051;51.548;14.348;2022-08-21T13:06:43;2.97;;;2.35;;
17850;SDS011;9051;51.548;14.348;2022-08-21T13:09:19;2.88;;;2.30;;
17850;SDS011;9051;51.548;14.348;2022-08-21T13:11:56;5.47;;;2.45;;
17850;SDS011;9051;51.548;14.348;2022-08-21T13:14:31;6.30;;;2.33;;
17850;SDS011;9051;51.548;14.348;2022-08-21T13:17:07;3.10;;;2.13;;
17850;SDS011;9051;51.548;14.348;2022-08-21T13:19:41;5.18;;;2.60;;
17850;SDS011;9051;51.548;14.348;2022-08-21T13:22:13;4.05;;;2.30;;
17850;SDS011;9051;51.548;14.348;2022-08-21T13:24:47;4.30;;;2.17;;
17850;SDS011;9051;51.548;14.348;2022-08-21T13:27:21;6.07;;;2.65;;
17850;SDS011;9051;51.548;14.348;2022-08-21T13:30:07;2.60;;;2.38;;
17850;SDS011;9051;51.548;14.348;2022-08-21T13:32:44;8.20;;;2.70;;
17850;SDS011;9051;51.548;14.348;2022-08-21T13:35:23;2.50;;;2.30;;
17850;SDS011;9051;51.548;14.348;2022-08-21T13:37:57;5.68;;;2.60;;
17850;SDS011;9051;51.548;14.348;2022-08-21T13:40:31;3.95;;;2.50;;
17850;SDS011;9051;51.548;14.348;2022-08-21T13:43:20;4.78;;;2.25;;
17850;SDS011;9051;51.548;14.348;2022-08-21T13:45:59;4.15;;;2.20;;
17850;SDS011;9051;51.548;14.348;2022-08-21T13:48:34;3.80;;;2.30;;
17850;SDS011;9051;51.548;14.348;2022-08-21T13:51:06;4.30;;;2.42;;
17850;SDS011;9051;51.548;14.348;2022-08-21T13:53:44;3.78;;;2.50;;
17850;SDS011;9051;51.548;14.348;2022-08-21T13:56:22;4.78;;;2.40;;
17850;SDS011;9051;51.548;14.348;2022-08-21T13:58:56;3.55;;;2.42;;
17850;SDS011;9051;51.548;14.348;2022-08-21T14:01:30;4.90;;;2.53;;
17850;SDS011;9051;51.548;14.348;2022-08-21T14:04:18;4.50;;;2.30;;
17850;SDS011;9051;51.548;14.348;2022-08-21T14:06:53;6.18;;;2.42;;
17850;SDS011;9051;51.548;14.348;2022-08-21T14:09:26;3.97;;;2.47;;
17850;SDS011;9051;51.548;14.348;2022-08-21T14:12:02;5.78;;;2.58;;
17850;SDS011;9051;51.548;14.348;2022-08-21T14:14:44;5.75;;;2.38;;
17850;SDS011;9051;51.548;14.348;2022-08-21T14:17:25;5.22;;;2.53;;
17850;SDS011;9051;51.548;14.348;2022-08-21T14:20:00;4.55;;;2.50;;
17850;SDS011;9051;51.548;14.348;2022-08-21T14:22:36;5.90;;;2.35;;
17850;SDS011;9051;51.548;14.348;2022-08-21T14:25:12;3.88;;;2.30;;
17850;SDS011;9051;51.548;14.348;2022-08-21T14:27:48;3.75;;;2.30;;
17850;SDS011;9051;51.548;14.348;2022-08-21T14:30:26;3.28;;;2.10;;
17850;SDS011;9051;51.548;14.348;2022-08-21T14:33:01;3.35;;;2.20;;
17850;SDS011;9051;51.548;14.348;2022-08-21T14:35:36;3.08;;;2.08;;
17850;SDS011;9051;51.548;14.348;2022-08-21T14:38:12;3.35;;;2.40;;
17850;SDS011;9051;51.548;14.348;2022-08-21T14:40:46;5.38;;;2.30;;
17850;SDS011;9051;51.548;14.348;2022-08-21T14:43:23;3.95;;;2.53;;
17850;SDS011;9051;51.548;14.348;2022-08-21T14:45:57;5.00;;;2.58;;
17850;SDS011;9051;51.548;14.348;2022-08-21T14:48:29;4.07;;;2.05;;
17850;SDS011;9051;51.548;14.348;2022-08-21T14:51:02;2.65;;;1.90;;
17850;SDS011;9051;51.548;14.348;2022-08-21T14:53:34;3.33;;;2.10;;
17850;SDS011;9051;51.548;14.348;2022-08-21T14:56:06;3.95;;;2.05;;
17850;SDS011;9051;51.548;14.348;2022-08-21T14:58:39;3.55;;;2.20;;
17850;SDS011;9051;51.548;14.348;2022-08-21T15:01:13;4.78;;;2.58;;
17850;SDS011;9051;51.548;14.348;2022-08-21T15:03:48;2.47;;;2.10;;
17850;SDS011;9051;51.548;14.348;2022-08-21T15:06:22;2.63;;;1.98;;
17850;SDS011;9051;51.548;14.348;2022-08-21T15:08:54;4.13;;;2.45;;
17850;SDS011;9051;51.548;14.348;2022-08-21T15:11:26;5.95;;;2.20;;
17850;SDS011;9051;51.548;14.348;2022-08-21T15:13:59;3.10;;;2.25;;
17850;SDS011;9051;51.548;14.348;2022-08-21T15:16:33;3.38;;;2.30;;
17850;SDS011;9051;51.548;14.348;2022-08-21T15:19:06;3.60;;;2.30;;
17850;SDS011;9051;51.548;14.348;2022-08-21T15:21:39;2.65;;;2.15;;
17850;SDS011;9051;51.548;14.348;2022-08-21T15:24:11;4.38;;;2.25;;